Time;durP1;ratioP1;P1;durP2;ratioP2;P2;SDS_P1;SDS_P2;PMS_P1;PMS_P2;Temp;Humidity;BMP_temperature;BMP_pressure;BME280_temperature;BME280_humidity;BME280_pressure;Samples;Min_cycle;Max_cycle;Signal;HPM_P1;HPM_P2
2021/06/16 00:01:05;;;;;;;5.65;1.90;;;;;;;10.91;87.90;101969.09;5039153;28;20521;-77
2021/06/16 00:03:31;;;;;;;6.60;1.70;;;;;;;10.80;87.46;101956.78;5043605;28;20570;-76
2021/06/16 00:05:57;;;;;;;8.98;2.58;;;;;;;10.78;87.58;101952.63;5047465;28;20120;-78
2021/06/16 00:08:22;;;;;;;7.20;1.60;;;;;;;10.80;88.39;101977.78;5048688;28;20036;-76
2021/06/16 00:10:48;;;;;;;9.48;2.15;;;;;;;10.66;88.10;101952.63;5055260;28;20033;-77
2021/06/16 00:13:14;;;;;;;9.20;2.08;;;;;;;10.75;88.57;101979.09;5043376;28;20037;-77
2021/06/16 00:15:42;;;;;;;6.53;2.38;;;;;;;10.62;88.13;101960.81;5039875;28;20041;-77
2021/06/16 00:18:08;;;;;;;8.57;2.05;;;;;;;10.71;88.35;101979.31;5040837;28;20099;-76
2021/06/16 00:20:35;;;;;;;8.35;2.08;;;;;;;10.62;88.67;101966.06;5020803;28;20034;-77
2021/06/16 00:23:02;;;;;;;7.13;2.00;;;;;;;10.59;88.38;101967.16;5013709;28;20098;-77
2021/06/16 00:25:28;;;;;;;6.38;2.10;;;;;;;10.54;88.76;101963.22;5041549;28;20049;-78
2021/06/16 00:27:54;;;;;;;6.65;2.05;;;;;;;10.52;88.83;101961.53;5058256;28;20044;-79
2021/06/16 00:30:20;;;;;;;7.45;2.28;;;;;;;10.56;88.61;101964.75;5035945;28;20168;-76
2021/06/16 00:32:46;;;;;;;6.25;2.40;;;;;;;10.41;88.86;101932.66;5044201;28;20514;-77
2021/06/16 00:35:18;;;;;;;11.30;2.50;;;;;;;10.36;89.61;101947.91;5055669;28;20041;-77
2021/06/16 00:37:43;;;;;;;8.68;2.67;;;;;;;10.43;89.24;101953.50;5036610;28;20104;-77
2021/06/16 00:40:12;;;;;;;10.35;2.40;;;;;;;10.44;88.99;101960.44;5016441;28;20061;-77
2021/06/16 00:42:37;;;;;;;9.20;2.65;;;;;;;10.43;89.14;101949.09;5034759;28;20062;-77
2021/06/16 00:45:05;;;;;;;7.80;2.70;;;;;;;10.34;89.73;101939.31;5025909;28;20040;-77
2021/06/16 00:47:32;;;;;;;4.65;2.47;;;;;;;10.29;89.56;101941.41;5059464;28;20083;-76
2021/06/16 00:49:58;;;;;;;6.75;2.35;;;;;;;10.21;90.14;101933.28;5009090;28;20042;-76
2021/06/16 00:52:24;;;;;;;7.45;2.35;;;;;;;10.29;89.87;101950.13;5035373;28;20337;-78
2021/06/16 00:54:49;;;;;;;8.43;2.80;;;;;;;10.24;90.25;101949.63;5038095;28;20392;-77
2021/06/16 00:57:15;;;;;;;8.52;2.58;;;;;;;10.20;90.34;101948.19;5032827;28;20029;-77
2021/06/16 01:00:05;;;;;;;6.70;2.47;;;;;;;10.22;89.81;101943.66;5032201;28;20813;-77
2021/06/16 01:02:54;;;;;;;8.68;2.53;;;;;;;10.19;90.01;101938.66;5037749;28;20071;-78
2021/06/16 01:05:23;;;;;;;7.95;2.42;;;;;;;10.23;90.27;101942.72;5014482;28;20128;-77
2021/06/16 01:07:56;;;;;;;9.70;3.08;;;;;;;10.20;90.52;101950.81;5017032;28;20057;-78
2021/06/16 01:10:23;;;;;;;9.35;2.78;;;;;;;10.16;90.63;101948.53;5032312;28;20087;-78
2021/06/16 01:12:59;;;;;;;7.35;2.45;;;;;;;10.11;90.34;101947.09;5012794;28;20037;-78
2021/06/16 01:15:29;;;;;;;8.43;2.70;;;;;;;10.02;90.39;101929.44;5030182;28;20041;-77
2021/06/16 01:17:59;;;;;;;7.35;2.65;;;;;;;10.11;90.60;101949.72;5029559;28;20079;-78
2021/06/16 01:20:31;;;;;;;7.68;2.80;;;;;;;9.99;90.16;101926.19;5032087;28;20030;-78
2021/06/16 01:23:12;;;;;;;4.88;2.70;;;;;;;10.14;90.33;101949.47;5029484;28;20499;-78
2021/06/16 01:25:59;;;;;;;10.18;2.90;;;;;;;10.08;90.04;101944.69;5000107;28;20529;-78
2021/06/16 01:28:29;;;;;;;11.48;3.28;;;;;;;10.05;90.58;101944.91;5032962;28;20044;-77
2021/06/16 01:30:55;;;;;;;10.70;3.05;;;;;;;10.01;90.83;101940.84;5046560;28;20042;-78
2021/06/16 01:33:21;;;;;;;7.15;2.88;;;;;;;9.97;90.68;101933.34;5046281;28;20037;-78
2021/06/16 01:35:51;;;;;;;8.02;3.17;;;;;;;9.94;91.06;101934.38;5029820;28;20484;-78
2021/06/16 01:38:20;;;;;;;9.13;2.90;;;;;;;9.90;91.09;101938.19;5016883;28;20107;-77
2021/06/16 01:40:47;;;;;;;8.27;3.10;;;;;;;9.88;90.95;101943.53;5041031;28;20410;-77
2021/06/16 01:43:13;;;;;;;7.03;3.10;;;;;;;9.89;91.05;101936.53;5032228;28;20041;-78
2021/06/16 01:45:41;;;;;;;17.83;3.97;;;;;;;9.94;91.06;101934.38;5027988;28;20128;-77
2021/06/16 01:48:09;;;;;;;11.23;3.70;;;;;;;9.82;91.66;101930.88;5014539;28;20048;-78
2021/06/16 01:50:35;;;;;;;8.95;3.33;;;;;;;9.66;91.62;101910.22;5016260;28;20076;-78
2021/06/16 01:53:02;;;;;;;6.20;3.10;;;;;;;9.75;91.58;101929.66;5040775;28;20412;-78
2021/06/16 01:55:28;;;;;;;12.77;3.88;;;;;;;9.76;91.95;101939.19;5023610;28;20041;-76
2021/06/16 01:57:57;;;;;;;9.45;3.50;;;;;;;9.72;91.98;101932.53;5055999;28;20060;-78
2021/06/16 02:00:23;;;;;;;10.60;3.53;;;;;;;9.72;91.63;101933.34;5043082;28;20021;-78
2021/06/16 02:02:50;;;;;;;8.40;3.40;;;;;;;9.69;90.85;101943.22;5048480;28;20499;-78
2021/06/16 02:05:19;;;;;;;9.18;3.53;;;;;;;9.67;91.50;101939.88;5028772;28;20041;-78
2021/06/16 02:07:51;;;;;;;10.35;3.67;;;;;;;9.61;92.03;101943.78;5043734;28;20053;-77
2021/06/16 02:10:19;;;;;;;8.37;3.60;;;;;;;9.65;92.02;101950.44;5026195;28;20034;-78
2021/06/16 02:12:46;;;;;;;10.15;3.83;;;;;;;9.60;92.02;101946.50;5027899;28;20349;-78
2021/06/16 02:15:17;;;;;;;7.25;3.80;;;;;;;9.59;91.72;101944.81;5027474;28;20048;-77
2021/06/16 02:17:50;;;;;;;9.73;3.22;;;;;;;9.54;91.30;101934.69;5022134;28;20044;-78
2021/06/16 02:20:20;;;;;;;7.80;3.80;;;;;;;9.62;91.43;101955.06;5062978;28;20045;-78
2021/06/16 02:22:46;;;;;;;9.10;3.65;;;;;;;9.54;91.93;101942.53;5064752;28;20242;-79
2021/06/16 02:25:13;;;;;;;12.40;4.10;;;;;;;9.45;92.00;101938.78;5047572;28;20093;-77
2021/06/16 02:27:38;;;;;;;9.50;3.85;;;;;;;9.52;92.16;101944.44;5031767;28;20492;-78
2021/06/16 02:30:06;;;;;;;5.57;3.40;;;;;;;9.51;92.66;101956.69;5046825;28;20045;-78
2021/06/16 02:32:32;;;;;;;10.60;3.72;;;;;;;9.38;92.75;101934.09;5039050;28;20044;-78
2021/06/16 02:34:59;;;;;;;8.40;3.30;;;;;;;9.31;92.52;101916.22;5031916;28;20041;-77
2021/06/16 02:37:26;;;;;;;7.97;3.97;;;;;;;9.38;93.57;101940.19;5052811;28;20037;-78
2021/06/16 02:39:56;;;;;;;6.18;3.55;;;;;;;9.33;93.62;101939.66;5028329;28;20073;-78
2021/06/16 02:42:22;;;;;;;12.45;3.90;;;;;;;9.32;93.79;101936.22;5029970;28;20045;-79
2021/06/16 02:44:49;;;;;;;7.78;3.97;;;;;;;9.30;94.16;101934.63;5045335;28;20038;-78
2021/06/16 02:47:16;;;;;;;9.82;4.07;;;;;;;9.28;94.68;101939.97;5045283;28;20551;-78
2021/06/16 02:49:47;;;;;;;11.07;4.07;;;;;;;9.14;94.67;101929.66;5052250;28;20254;-79
2021/06/16 02:52:17;;;;;;;12.15;4.05;;;;;;;9.05;94.36;101901.53;5066860;28;20254;-77
2021/06/16 02:54:46;;;;;;;10.05;3.60;;;;;;;9.10;94.16;101907.28;5049322;28;20033;-78
2021/06/16 02:57:17;;;;;;;8.95;3.88;;;;;;;9.13;93.85;101923.56;5049605;28;20079;-78
2021/06/16 02:59:46;;;;;;;7.88;3.47;;;;;;;9.23;93.49;101936.88;5049265;28;20032;-78
2021/06/16 03:02:14;;;;;;;6.75;4.00;;;;;;;9.06;93.61;101905.78;5060449;28;20022;-79
2021/06/16 03:04:42;;;;;;;10.43;4.05;;;;;;;9.06;93.70;101911.88;5071449;28;20056;-79
2021/06/16 03:07:09;;;;;;;10.70;3.63;;;;;;;9.08;93.44;101911.75;5055312;28;20034;-78
2021/06/16 03:09:37;;;;;;;8.13;4.10;;;;;;;9.00;93.26;101898.38;5032536;28;20018;-78
2021/06/16 03:12:03;;;;;;;6.35;3.60;;;;;;;9.15;93.50;101926.09;5032544;28;20053;-78
2021/06/16 03:14:30;;;;;;;9.85;4.20;;;;;;;9.17;93.85;101924.19;5056060;28;20041;-78
2021/06/16 03:16:58;;;;;;;9.85;4.32;;;;;;;9.24;93.61;101935.91;5047696;28;20038;-78
2021/06/16 03:19:24;;;;;;;7.20;4.25;;;;;;;9.19;93.66;101930.16;5046649;28;20044;-79
2021/06/16 03:21:51;;;;;;;8.60;4.00;;;;;;;9.24;93.98;101935.91;5034698;28;20047;-78
2021/06/16 03:24:18;;;;;;;9.25;4.00;;;;;;;9.09;93.99;101909.03;5038692;28;20133;-78
2021/06/16 03:26:45;;;;;;;7.28;4.07;;;;;;;9.20;94.67;101936.25;5046796;28;20054;-78
2021/06/16 03:29:11;;;;;;;8.63;4.18;;;;;;;9.23;94.23;101928.16;5043556;28;20037;-78
2021/06/16 03:31:41;;;;;;;10.68;4.00;;;;;;;9.29;94.40;101936.44;5046042;28;20041;-78
2021/06/16 03:34:08;;;;;;;5.20;4.18;;;;;;;9.18;94.40;101912.78;5055399;28;20045;-78
2021/06/16 03:36:36;;;;;;;7.05;4.13;;;;;;;9.35;94.46;101930.75;5058249;28;20028;-78
2021/06/16 03:39:06;;;;;;;7.20;3.67;;;;;;;9.26;94.25;101910.44;5058701;28;20120;-77
2021/06/16 03:41:34;;;;;;;8.60;3.67;;;;;;;9.33;94.54;101913.47;5046934;28;20064;-78
2021/06/16 03:44:00;;;;;;;7.82;4.53;;;;;;;9.39;94.48;101918.28;5041977;28;20049;-78
2021/06/16 03:46:28;;;;;;;11.80;4.60;;;;;;;9.54;94.55;101927.66;5061198;28;20060;-79
2021/06/16 03:48:55;;;;;;;6.90;4.68;;;;;;;9.56;94.98;101930.16;5046799;28;20037;-78
2021/06/16 03:51:21;;;;;;;7.93;4.38;;;;;;;9.53;95.37;101907.66;5044006;28;20042;-78
2021/06/16 03:53:49;;;;;;;7.68;4.50;;;;;;;9.60;95.15;101907.19;5053479;28;20075;-78
2021/06/16 03:56:16;;;;;;;11.82;4.97;;;;;;;9.75;95.21;101924.41;5063123;28;20037;-78
2021/06/16 03:58:41;;;;;;;9.75;4.45;;;;;;;9.83;95.77;101937.81;5045631;28;20578;-78
2021/06/16 04:01:14;;;;;;;8.02;4.95;;;;;;;9.86;95.71;101923.63;5035898;28;20040;-78
2021/06/16 04:03:40;;;;;;;12.85;5.25;;;;;;;9.93;96.19;101920.44;5058425;28;20040;-78
2021/06/16 04:06:07;;;;;;;14.63;5.80;;;;;;;9.91;96.71;101906.63;5063513;28;20059;-79
2021/06/16 04:08:35;;;;;;;9.82;5.00;;;;;;;10.13;96.75;101931.22;5044043;28;20034;-78
2021/06/16 04:11:01;;;;;;;7.28;5.18;;;;;;;10.14;96.09;101909.31;5039423;28;20061;-78
2021/06/16 04:13:26;;;;;;;13.05;6.05;;;;;;;10.36;96.22;101926.94;5040615;28;20065;-78
2021/06/16 04:15:52;;;;;;;12.07;5.50;;;;;;;10.30;96.27;101911.59;5022918;28;20046;-77
2021/06/16 04:18:18;;;;;;;13.60;6.78;;;;;;;10.40;96.43;101909.19;5021447;28;20062;-78
2021/06/16 04:20:44;;;;;;;12.60;5.38;;;;;;;10.63;96.08;101933.66;5020147;28;20060;-78
2021/06/16 04:23:10;;;;;;;8.43;5.22;;;;;;;10.69;95.58;101927.91;5020177;28;20029;-79
2021/06/16 04:25:36;;;;;;;10.25;5.18;;;;;;;10.73;95.11;101926.72;5053046;28;20040;-77
2021/06/16 04:28:02;;;;;;;14.45;5.47;;;;;;;10.83;94.46;101906.69;5046551;28;20192;-78
2021/06/16 04:30:30;;;;;;;9.48;4.75;;;;;;;11.17;92.87;101924.19;5057508;28;20725;-77
2021/06/16 04:32:55;;;;;;;7.93;4.45;;;;;;;11.13;92.99;101902.59;5031528;28;20311;-79
2021/06/16 04:35:21;;;;;;;11.07;4.80;;;;;;;11.34;91.86;101905.31;5036872;28;20045;-78
2021/06/16 04:37:47;;;;;;;11.60;4.65;;;;;;;11.56;91.86;101932.47;5032949;28;20033;-77
2021/06/16 04:40:13;;;;;;;14.20;5.30;;;;;;;11.65;91.89;101927.31;5040309;28;20041;-77
2021/06/16 04:42:39;;;;;;;13.73;4.85;;;;;;;11.76;91.80;101929.06;5059213;28;20488;-78
2021/06/16 04:45:06;;;;;;;10.20;4.70;;;;;;;11.91;90.64;101918.31;5041910;28;20101;-79
2021/06/16 04:47:33;;;;;;;10.98;4.22;;;;;;;12.01;90.16;101927.91;5055781;28;20124;-78
2021/06/16 04:49:58;;;;;;;11.52;4.78;;;;;;;12.00;89.59;101912.28;5061965;28;20033;-78
2021/06/16 04:52:24;;;;;;;7.82;4.43;;;;;;;12.08;89.59;101907.22;5044506;28;20041;-78
2021/06/16 04:54:50;;;;;;;9.90;3.78;;;;;;;12.25;88.98;101929.47;5042752;28;20521;-77
2021/06/16 04:57:16;;;;;;;12.02;4.40;;;;;;;12.31;89.40;101928.13;5051968;28;20055;-79
2021/06/16 04:59:41;;;;;;;8.15;4.03;;;;;;;12.29;89.09;101916.91;5048392;28;20092;-77
2021/06/16 05:02:07;;;;;;;7.72;3.83;;;;;;;12.28;89.33;101913.41;5025062;28;20048;-78
2021/06/16 05:04:33;;;;;;;10.65;4.28;;;;;;;12.47;89.17;101931.16;5029141;28;20037;-77
2021/06/16 05:07:00;;;;;;;12.70;4.50;;;;;;;12.44;88.16;101908.53;5039329;28;20040;-78
2021/06/16 05:09:25;;;;;;;13.25;4.00;;;;;;;12.47;88.87;101907.47;5046809;28;20045;-78
2021/06/16 05:11:51;;;;;;;7.93;4.05;;;;;;;12.78;88.32;101925.88;5036256;28;20056;-77
2021/06/16 05:14:17;;;;;;;7.18;3.50;;;;;;;12.90;86.38;101910.81;5044942;28;20068;-78
2021/06/16 05:16:43;;;;;;;10.52;3.78;;;;;;;13.17;84.86;101932.13;5044347;28;20029;-78
2021/06/16 05:19:15;;;;;;;8.10;3.60;;;;;;;13.16;84.26;101906.75;5054873;28;20095;-79
2021/06/16 05:21:41;;;;;;;;;;;;;;;13.32;84.43;101918.63;5039998;28;20184;-78
2021/06/16 05:24:07;;;;;;;10.48;3.53;;;;;;;13.25;83.74;101891.94;5061073;28;19913;-77
2021/06/16 05:26:32;;;;;;;10.70;4.10;;;;;;;13.47;84.46;101904.06;5055042;28;20033;-78
2021/06/16 05:28:58;;;;;;;9.95;3.92;;;;;;;13.62;83.17;101910.59;5035461;28;20143;-78
2021/06/16 05:31:23;;;;;;;10.20;3.97;;;;;;;13.85;82.42;101922.69;5040447;28;20051;-77
2021/06/16 05:33:49;;;;;;;7.97;3.05;;;;;;;13.91;81.97;101911.56;5023051;28;20040;-77
2021/06/16 05:36:14;;;;;;;9.52;3.10;;;;;;;14.01;81.18;101923.78;5054363;28;20103;-77
2021/06/16 05:38:40;;;;;;;12.40;3.50;;;;;;;14.11;79.53;101909.72;5020823;28;20029;-78
2021/06/16 05:41:06;;;;;;;11.10;3.28;;;;;;;14.23;79.46;101920.97;5044163;28;20032;-77
2021/06/16 05:43:31;;;;;;;8.82;3.05;;;;;;;14.31;78.29;101916.63;5051120;28;20041;-78
2021/06/16 05:45:57;;;;;;;10.93;3.20;;;;;;;14.39;78.03;101911.50;5018747;28;20041;-78
2021/06/16 05:48:22;;;;;;;6.88;3.03;;;;;;;14.51;77.27;101906.88;5037918;28;20033;-78
2021/06/16 05:50:48;;;;;;;10.70;2.83;;;;;;;14.66;77.29;101907.28;5018229;28;20042;-78
2021/06/16 05:53:14;;;;;;;11.38;2.50;;;;;;;14.86;77.00;101913.31;5034104;28;20052;-78
2021/06/16 05:55:39;;;;;;;7.22;2.40;;;;;;;14.92;75.49;101898.69;5014531;28;20518;-78
2021/06/16 05:58:05;;;;;;;5.50;2.00;;;;;;;15.06;73.30;101903.47;5022285;28;20056;-79
2021/06/16 06:00:30;;;;;;;5.82;1.85;;;;;;;15.03;71.73;101872.06;5035691;28;20035;-79
2021/06/16 06:02:56;;;;;;;4.65;2.00;;;;;;;15.24;70.99;101884.16;5037857;28;20065;-79
2021/06/16 06:05:21;;;;;;;6.35;2.00;;;;;;;15.35;70.63;101887.44;5021580;28;20034;-79
2021/06/16 06:07:47;;;;;;;9.45;1.70;;;;;;;15.36;69.81;101881.16;5014900;28;20049;-77
2021/06/16 06:10:14;;;;;;;8.88;1.85;;;;;;;15.56;69.82;101894.25;5031102;28;20037;-79
2021/06/16 06:12:40;;;;;;;6.75;1.98;;;;;;;15.64;70.12;101893.47;5054407;28;20045;-78
2021/06/16 06:15:06;;;;;;;8.75;2.00;;;;;;;15.78;70.41;101885.03;5011677;28;20076;-79
2021/06/16 06:17:33;;;;;;;6.93;2.00;;;;;;;15.91;70.74;101882.00;5030136;28;20052;-79
2021/06/16 06:19:59;;;;;;;4.07;1.70;;;;;;;16.12;69.97;101894.88;5027207;28;20037;-79
2021/06/16 06:22:25;;;;;;;6.85;1.75;;;;;;;16.23;69.00;101891.13;5030007;28;20025;-79
2021/06/16 06:24:51;;;;;;;7.50;1.55;;;;;;;16.39;65.49;101893.03;5036518;28;20040;-78
2021/06/16 06:27:16;;;;;;;3.92;1.33;;;;;;;16.34;64.11;101872.34;5014925;28;20041;-79
2021/06/16 06:29:42;;;;;;;7.35;1.67;;;;;;;16.51;64.06;101886.50;5026913;28;20030;-78
2021/06/16 06:32:07;;;;;;;6.28;1.45;;;;;;;16.62;63.99;101890.72;5013627;28;20116;-78
2021/06/16 06:34:33;;;;;;;5.18;1.40;;;;;;;16.77;61.80;101885.66;5028651;28;20120;-79
2021/06/16 06:36:58;;;;;;;6.18;1.55;;;;;;;16.94;61.82;101892.69;5035243;28;20103;-79
2021/06/16 06:39:24;;;;;;;6.07;1.50;;;;;;;17.00;62.49;101885.91;5014089;28;20053;-77
2021/06/16 06:41:50;;;;;;;3.35;1.50;;;;;;;17.04;64.15;101889.91;5012517;28;20044;-78
2021/06/16 06:44:15;;;;;;;7.95;1.50;;;;;;;17.04;64.59;101880.13;5038366;28;20065;-78
2021/06/16 06:46:41;;;;;;;3.88;1.35;;;;;;;17.25;63.87;101882.34;5020957;28;20065;-79
2021/06/16 06:49:06;;;;;;;6.28;1.75;;;;;;;17.33;63.99;101884.19;5032725;28;20041;-77
2021/06/16 06:51:32;;;;;;;5.18;1.40;;;;;;;17.38;64.65;101876.53;5047906;28;20413;-77
2021/06/16 06:53:57;;;;;;;4.63;1.02;;;;;;;17.52;64.12;101878.56;5048513;28;20032;-78
2021/06/16 06:56:23;;;;;;;10.93;1.70;;;;;;;17.69;64.93;101870.63;5030819;28;20045;-80
2021/06/16 06:58:48;;;;;;;3.83;1.30;;;;;;;17.81;63.94;101874.56;5031372;28;20037;-77
2021/06/16 07:01:14;;;;;;;2.88;1.30;;;;;;;17.94;63.13;101873.28;5030635;28;20151;-78
2021/06/16 07:03:39;;;;;;;3.67;1.60;;;;;;;18.01;63.22;101866.31;5036478;28;20485;-81
2021/06/16 07:06:05;;;;;;;4.35;1.70;;;;;;;18.27;63.12;101877.53;5048104;28;20037;-77
2021/06/16 07:08:31;;;;;;;5.25;1.40;;;;;;;18.45;62.84;101872.00;5050517;28;20036;-77
2021/06/16 07:10:56;;;;;;;7.63;1.40;;;;;;;18.59;60.68;101873.13;5055393;28;20041;-78
2021/06/16 07:13:22;;;;;;;4.60;1.60;;;;;;;18.61;60.87;101857.00;5034802;28;20044;-80
2021/06/16 07:15:48;;;;;;;3.90;1.70;;;;;;;18.73;61.31;101862.78;5034527;28;20037;-78
2021/06/16 07:18:13;;;;;;;6.13;1.88;;;;;;;18.55;60.74;101847.06;5034169;28;20037;-78
2021/06/16 07:20:40;;;;;;;4.28;1.60;;;;;;;18.66;61.27;101863.44;5014573;28;20083;-78
2021/06/16 07:23:05;;;;;;;3.80;1.58;;;;;;;18.78;61.49;101853.28;5043621;28;20044;-77
2021/06/16 07:25:31;;;;;;;8.05;1.65;;;;;;;19.04;62.27;101865.44;5032644;28;20097;-78
2021/06/16 07:27:56;;;;;;;6.82;1.67;;;;;;;19.13;59.52;101852.94;5031681;28;20041;-78
2021/06/16 07:30:22;;;;;;;6.75;1.80;;;;;;;19.04;61.05;101865.44;5039533;28;20033;-78
2021/06/16 07:32:49;;;;;;;4.55;1.80;;;;;;;19.12;61.02;101856.59;5051532;28;20097;-78
2021/06/16 07:35:16;;;;;;;6.70;2.05;;;;;;;19.22;61.11;101855.38;5040229;28;20033;-78
2021/06/16 07:37:42;;;;;;;6.63;1.80;;;;;;;19.23;60.04;101848.22;5041738;28;20056;-79
2021/06/16 07:40:09;;;;;;;4.72;1.70;;;;;;;19.34;61.60;101852.31;5034135;28;20037;-79
2021/06/16 07:42:39;;;;;;;3.90;1.63;;;;;;;19.57;59.59;101852.28;5045542;28;20105;-80
2021/06/16 07:45:06;;;;;;;3.45;1.55;;;;;;;19.58;59.54;101827.34;5057993;28;20036;-80
2021/06/16 07:47:31;;;;;;;7.78;1.98;;;;;;;19.90;59.74;101844.03;5032073;28;20064;-79
2021/06/16 07:49:57;;;;;;;3.63;1.50;;;;;;;20.05;59.53;101844.06;5034821;28;20061;-78
2021/06/16 07:52:23;;;;;;;5.82;2.08;;;;;;;20.18;59.94;101850.41;5046293;28;20451;-79
2021/06/16 07:54:49;;;;;;;9.75;2.20;;;;;;;20.28;57.24;101831.47;5032006;28;20040;-80
2021/06/16 07:57:14;;;;;;;7.05;1.65;;;;;;;20.35;57.31;101842.25;5040331;28;20130;-79
2021/06/16 07:59:40;;;;;;;8.40;2.00;;;;;;;20.34;56.83;101819.25;5037430;28;20513;-78
2021/06/16 08:02:06;;;;;;;4.72;1.80;;;;;;;20.63;56.71;101829.09;5022271;28;20049;-78
2021/06/16 08:04:32;;;;;;;5.78;1.63;;;;;;;20.83;55.88;101834.63;5069877;28;20049;-81
2021/06/16 08:06:58;;;;;;;3.80;1.48;;;;;;;20.84;56.91;101832.81;5043610;28;20823;-79
2021/06/16 08:09:24;;;;;;;3.90;1.73;;;;;;;20.91;55.90;101833.72;5057172;28;20037;-78
2021/06/16 08:11:50;;;;;;;5.10;1.92;;;;;;;20.88;55.49;101832.25;5025140;28;20034;-79
2021/06/16 08:14:16;;;;;;;8.23;1.90;;;;;;;20.90;53.94;101826.72;5046719;28;20052;-76
2021/06/16 08:16:41;;;;;;;6.05;2.00;;;;;;;21.06;56.08;101820.31;5029350;28;20076;-79
2021/06/16 08:19:07;;;;;;;4.97;1.42;;;;;;;21.24;54.26;101817.22;5047224;28;20120;-78
2021/06/16 08:21:32;;;;;;;5.93;1.80;;;;;;;21.38;53.17;101821.66;5030572;28;20031;-79
2021/06/16 08:23:58;;;;;;;4.03;1.33;;;;;;;21.28;52.65;101821.97;5038515;28;20087;-78
2021/06/16 08:26:24;;;;;;;4.10;1.35;;;;;;;21.49;52.91;101818.50;5029100;28;20369;-79
2021/06/16 08:28:49;;;;;;;5.32;1.60;;;;;;;21.62;51.03;101827.63;5020746;28;20134;-77
2021/06/16 08:31:15;;;;;;;7.22;1.80;;;;;;;21.51;52.17;101815.63;5004164;28;20089;-80
2021/06/16 08:33:41;;;;;;;6.15;1.60;;;;;;;21.69;53.23;101821.31;5015055;28;20810;-79
2021/06/16 08:36:07;;;;;;;7.38;1.60;;;;;;;21.83;47.60;101822.25;5031240;28;20049;-80
2021/06/16 08:38:33;;;;;;;8.90;1.90;;;;;;;21.82;47.78;101814.44;5018275;28;20036;-78
2021/06/16 08:41:05;;;;;;;6.75;1.67;;;;;;;21.88;49.62;101825.16;5029245;28;20041;-78
2021/06/16 08:43:39;;;;;;;4.20;1.25;;;;;;;22.10;49.63;101812.53;5020981;28;20040;-78
2021/06/16 08:46:07;;;;;;;6.22;1.35;;;;;;;22.26;48.38;101811.41;4993194;28;20528;-78
2021/06/16 08:48:35;;;;;;;7.25;1.48;;;;;;;22.38;49.29;101801.00;5028790;28;20068;-79
2021/06/16 08:51:01;;;;;;;7.30;1.48;;;;;;;22.50;47.31;101798.56;5029659;28;20060;-79
2021/06/16 08:53:28;;;;;;;3.90;1.00;;;;;;;22.59;45.20;101800.06;5015727;28;20095;-78
2021/06/16 08:55:53;;;;;;;6.35;1.38;;;;;;;22.59;45.64;101799.22;5012017;28;20060;-80
2021/06/16 08:58:19;;;;;;;4.50;1.15;;;;;;;22.58;46.10;101793.03;5028200;28;20516;-79
2021/06/16 09:00:44;;;;;;;4.30;1.30;;;;;;;22.65;45.94;101795.75;5014284;28;20034;-79
2021/06/16 09:03:10;;;;;;;5.57;1.50;;;;;;;22.84;44.79;101799.50;5035298;28;20120;-80
2021/06/16 09:05:38;;;;;;;5.75;1.10;;;;;;;22.74;46.37;101795.34;5029867;28;20120;-80
2021/06/16 09:08:22;;;;;;;4.63;1.33;;;;;;;22.77;47.88;101783.41;5019837;28;20040;-79
2021/06/16 09:10:53;;;;;;;5.90;1.30;;;;;;;22.81;44.10;101800.72;5027412;28;20507;-79
2021/06/16 09:13:31;;;;;;;3.15;1.00;;;;;;;22.92;45.12;101794.78;5011803;28;20049;-79
2021/06/16 09:15:58;;;;;;;5.05;1.10;;;;;;;23.04;44.59;101787.00;5028033;28;20466;-78
2021/06/16 09:18:24;;;;;;;5.18;1.33;;;;;;;23.07;44.67;101783.91;5011948;28;20075;-80
2021/06/16 09:20:53;;;;;;;4.00;1.10;;;;;;;23.11;45.35;101779.81;5029049;28;20456;-80
2021/06/16 09:23:19;;;;;;;7.70;1.15;;;;;;;23.31;45.40;101789.69;5029007;28;20025;-79
2021/06/16 09:26:02;;;;;;;4.32;1.45;;;;;;;23.39;46.51;101789.47;5027901;28;20053;-79
2021/06/16 09:28:40;;;;;;;4.55;1.40;;;;;;;23.44;45.80;101780.84;5012140;28;20125;-80
2021/06/16 09:31:06;;;;;;;3.50;1.20;;;;;;;23.47;45.35;101778.59;5046106;28;20041;-80
2021/06/16 09:33:32;;;;;;;4.15;1.30;;;;;;;23.63;45.49;101771.16;5051515;28;20045;-79
2021/06/16 09:35:58;;;;;;;4.88;1.55;;;;;;;23.77;44.23;101771.94;5018218;28;20091;-79
2021/06/16 09:38:34;;;;;;;5.38;1.30;;;;;;;23.79;44.19;101768.06;5019336;28;20045;-78
2021/06/16 09:41:00;;;;;;;8.27;1.40;;;;;;;23.80;43.71;101761.66;5012106;28;20148;-80
2021/06/16 09:43:28;;;;;;;4.03;1.25;;;;;;;23.90;43.47;101770.09;5009359;28;20080;-79
2021/06/16 09:46:00;;;;;;;3.92;1.20;;;;;;;24.17;45.10;101771.88;4992317;28;20034;-79
2021/06/16 09:48:31;;;;;;;3.90;1.27;;;;;;;24.22;44.30;101755.94;5024793;28;20057;-78
2021/06/16 09:51:19;;;;;;;5.40;1.37;;;;;;;24.40;42.64;101763.31;5026689;28;20286;-80
2021/06/16 09:54:14;;;;;;;4.78;1.33;;;;;;;24.23;42.73;101765.66;5028194;28;20283;-80
2021/06/16 09:56:44;;;;;;;4.43;1.38;;;;;;;24.08;42.89;101765.91;5029272;28;20047;-79
2021/06/16 09:59:12;;;;;;;5.10;1.50;;;;;;;24.26;45.66;101752.66;5030538;28;20130;-77
2021/06/16 10:01:53;;;;;;;4.97;1.38;;;;;;;24.56;43.27;101762.00;5027039;28;20483;-80
2021/06/16 10:07:29;;;;;;;3.60;1.25;;;;;;;24.70;42.65;101747.47;5029496;28;20049;-80
2021/06/16 10:10:06;;;;;;;5.95;1.40;;;;;;;24.86;41.60;101751.50;5046745;28;20104;-80
2021/06/16 10:12:36;;;;;;;5.20;1.45;;;;;;;24.78;42.13;101747.22;5013546;28;20330;-80
2021/06/16 10:15:09;;;;;;;5.03;1.35;;;;;;;24.79;42.15;101746.19;5028114;28;20045;-77
2021/06/16 10:17:35;;;;;;;4.65;1.42;;;;;;;25.08;42.50;101746.59;5042557;28;20579;-77
2021/06/16 10:20:02;;;;;;;2.63;1.30;;;;;;;25.34;41.57;101737.50;5042440;28;20037;-76
2021/06/16 10:22:28;;;;;;;3.70;1.30;;;;;;;25.47;41.25;101735.72;5027523;28;20033;-77
2021/06/16 10:24:53;;;;;;;8.35;1.67;;;;;;;25.48;41.45;101734.69;5027271;28;20038;-77
2021/06/16 10:27:45;;;;;;;5.88;1.33;;;;;;;25.73;40.81;101742.69;5038281;28;20153;-79
2021/06/16 10:30:16;;;;;;;4.53;1.42;;;;;;;25.88;41.00;101726.19;5034006;28;20070;-78
2021/06/16 10:32:44;;;;;;;4.47;1.30;;;;;;;25.80;39.46;101730.81;5052796;28;20037;-79
2021/06/16 10:35:14;;;;;;;4.25;1.40;;;;;;;25.72;40.05;101738.38;5016612;28;20499;-79
2021/06/16 10:37:44;;;;;;;8.02;1.58;;;;;;;25.53;41.21;101737.53;5017762;28;20681;-80
2021/06/16 10:40:12;;;;;;;4.03;1.40;;;;;;;25.67;39.99;101730.97;5015522;28;20036;-79
2021/06/16 10:43:06;;;;;;;6.63;1.33;;;;;;;25.83;39.87;101735.75;5033331;28;20060;-81
2021/06/16 10:45:41;;;;;;;2.30;1.35;;;;;;;25.94;40.90;101728.03;5032142;28;20049;-81
2021/06/16 10:48:10;;;;;;;6.18;1.60;;;;;;;26.24;40.49;101728.06;5030896;28;20496;-81
2021/06/16 10:50:45;;;;;;;5.38;1.40;;;;;;;26.27;39.63;101726.78;5045708;28;20029;-78
2021/06/16 10:53:21;;;;;;;1.98;1.30;;;;;;;26.31;38.98;101726.09;5040653;28;20041;-80
2021/06/16 10:55:56;;;;;;;6.72;1.50;;;;;;;26.11;39.36;101717.50;5048943;28;20032;-81
2021/06/16 10:58:25;;;;;;;3.45;1.58;;;;;;;26.17;39.45;101713.88;5032602;28;20041;-81
2021/06/16 11:01:17;;;;;;;4.50;1.50;;;;;;;26.16;43.41;101709.53;5023799;28;20116;-81
2021/06/16 11:03:52;;;;;;;5.97;1.60;;;;;;;26.32;39.94;101705.41;5033466;28;20037;-80
2021/06/16 11:06:33;;;;;;;8.48;1.38;;;;;;;26.60;37.98;101702.13;5033766;28;20431;-80
2021/06/16 11:09:15;;;;;;;5.55;1.48;;;;;;;26.84;38.27;101700.28;5030562;28;20041;-79
2021/06/16 11:11:47;;;;;;;2.65;1.20;;;;;;;26.75;38.72;101697.13;5029270;28;20124;-79
2021/06/16 11:14:45;;;;;;;3.55;1.38;;;;;;;26.78;38.52;101691.25;5028492;28;20076;-78
2021/06/16 11:17:33;;;;;;;4.78;1.75;;;;;;;26.79;38.72;101674.06;5028408;28;20018;-78
2021/06/16 11:20:06;;;;;;;2.15;1.30;;;;;;;26.91;38.80;101689.41;5038009;28;20129;-79
2021/06/16 11:22:35;;;;;;;7.60;1.80;;;;;;;26.91;39.78;101676.78;5031190;28;20029;-81
2021/06/16 11:25:06;;;;;;;6.15;1.50;;;;;;;27.09;37.21;101680.44;5013302;28;20048;-80
2021/06/16 11:27:52;;;;;;;4.40;1.40;;;;;;;27.10;37.14;101668.59;5011906;28;20033;-80
2021/06/16 11:30:33;;;;;;;3.22;1.60;;;;;;;27.25;36.54;101668.97;5046938;28;20045;-80
2021/06/16 11:33:20;;;;;;;4.68;2.10;;;;;;;27.40;38.01;101670.34;5056623;28;20025;-79
2021/06/16 11:36:00;;;;;;;3.83;1.42;;;;;;;27.43;37.22;101659.13;5034356;28;20044;-80